Time;durP1;ratioP1;P1;durP2;ratioP2;P2;SDS_P1;SDS_P2;PMS_P1;PMS_P2;Temp;Humidity;BMP_temperature;BMP_pressure;BME280_temperature;BME280_humidity;BME280_pressure;Samples;Min_cycle;Max_cycle;Signal;HPM_P1;HPM_P2
2023/08/25 00:00:57;;;;;;;3.83;3.60;;;;;;;21.86;100.00;99813.13;4989852;28;20231;-78
2023/08/25 00:03:22;;;;;;;4.03;3.67;;;;;;;21.84;100.00;99815.00;4991931;28;20191;-77
2023/08/25 00:05:51;;;;;;;4.00;3.70;;;;;;;21.83;100.00;99824.69;4986490;28;20185;-77
2023/08/25 00:08:16;;;;;;;4.33;3.57;;;;;;;21.82;100.00;99824.78;4986431;28;20208;-78
2023/08/25 00:10:41;;;;;;;3.70;3.37;;;;;;;21.78;100.00;99822.34;4992547;28;20226;-78
2023/08/25 00:13:07;;;;;;;3.90;3.60;;;;;;;21.76;100.00;99818.13;5005654;28;20558;-77
2023/08/25 00:15:32;;;;;;;3.77;3.47;;;;;;;21.73;100.00;99815.66;4992507;28;20212;-78
2023/08/25 00:17:57;;;;;;;3.60;3.30;;;;;;;21.71;100.00;99814.91;4989451;28;20223;-77
2023/08/25 00:20:23;;;;;;;4.10;3.80;;;;;;;21.68;100.00;99809.88;4986840;28;20196;-77
2023/08/25 00:22:48;;;;;;;4.13;3.77;;;;;;;21.66;100.00;99806.50;4989842;28;20192;-77
2023/08/25 00:25:13;;;;;;;3.43;3.23;;;;;;;21.65;100.00;99810.06;4993122;28;20195;-78
2023/08/25 00:27:39;;;;;;;3.53;3.23;;;;;;;21.64;100.00;99819.72;4988935;28;20259;-77
2023/08/25 00:30:06;;;;;;;3.77;3.47;;;;;;;21.61;100.00;99810.25;4994700;28;20184;-78
2023/08/25 00:32:32;;;;;;;4.07;3.70;;;;;;;21.60;100.00;99816.44;4987796;28;20185;-78
2023/08/25 00:34:57;;;;;;;3.47;3.17;;;;;;;21.57;100.00;99807.88;4987800;28;20200;-78
2023/08/25 00:37:22;;;;;;;3.87;3.57;;;;;;;21.56;100.00;99808.81;4989481;28;20217;-78
2023/08/25 00:39:48;;;;;;;4.23;3.90;;;;;;;21.55;100.00;99800.09;4989322;28;21101;-78
2023/08/25 00:42:13;;;;;;;4.30;4.10;;;;;;;21.55;100.00;99805.34;4984641;28;20796;-78
2023/08/25 00:44:38;;;;;;;4.00;3.63;;;;;;;21.57;100.00;99813.13;4984901;28;20199;-77
2023/08/25 00:47:05;;;;;;;4.03;3.73;;;;;;;21.56;100.00;99801.75;4991109;28;20231;-78
2023/08/25 00:49:31;;;;;;;3.73;3.43;;;;;;;21.57;100.00;99802.59;4991425;28;20483;-77
2023/08/25 00:51:57;;;;;;;4.00;3.70;;;;;;;21.55;100.00;99797.44;4982360;28;20822;-78
2023/08/25 00:54:28;;;;;;;3.70;3.40;;;;;;;21.55;100.00;99788.69;4987780;28;20681;-78
2023/08/25 00:56:53;;;;;;;3.70;3.50;;;;;;;21.54;100.00;99794.91;4987800;28;20591;-76
2023/08/25 00:59:19;;;;;;;4.13;3.83;;;;;;;21.52;100.00;99792.38;4988122;28;20290;-77
2023/08/25 01:01:45;;;;;;;3.70;3.40;;;;;;;21.50;100.00;99786.34;4984670;28;20217;-78
2023/08/25 01:04:11;;;;;;;3.63;3.43;;;;;;;21.50;100.00;99788.13;4986442;28;20192;-77
2023/08/25 01:06:37;;;;;;;3.73;3.43;;;;;;;21.47;100.00;99776.00;5000821;28;20212;-78
2023/08/25 01:09:04;;;;;;;4.00;3.70;;;;;;;21.45;100.00;99776.13;4988560;28;20248;-77
2023/08/25 01:11:39;;;;;;;3.50;3.20;;;;;;;21.45;100.00;99785.78;4989340;28;20192;-77
2023/08/25 01:14:32;;;;;;;4.30;3.60;;;;;;;21.42;100.00;99776.31;4988917;28;20196;-78
2023/08/25 01:17:15;;;;;;;4.20;3.87;;;;;;;21.43;100.00;99782.41;4982366;28;20213;-76
2023/08/25 01:19:51;;;;;;;4.07;3.70;;;;;;;21.41;100.00;99771.13;4978142;28;20211;-77
2023/08/25 01:22:34;;;;;;;4.30;3.90;;;;;;;21.38;100.00;99769.53;4986419;28;20200;-77
2023/08/25 01:25:21;;;;;;;4.63;3.53;;;;;;;21.37;100.00;99775.75;4984620;28;20192;-77
2023/08/25 01:27:49;;;;;;;4.50;4.10;;;;;;;21.35;100.00;99761.81;4987734;28;20236;-76
2023/08/25 01:30:14;;;;;;;6.37;3.90;;;;;;;21.36;100.00;99763.50;4983792;28;20244;-77
2023/08/25 01:32:40;;;;;;;5.00;3.73;;;;;;;21.35;100.00;99759.19;5005598;28;20177;-76
2023/08/25 01:35:06;;;;;;;5.40;3.80;;;;;;;21.35;100.00;99763.63;4990829;28;20278;-79
2023/08/25 01:37:38;;;;;;;4.60;3.93;;;;;;;21.33;100.00;99753.19;4983923;28;20260;-77
2023/08/25 01:40:10;;;;;;;5.90;4.00;;;;;;;21.32;100.00;99757.59;4989308;28;20205;-77
2023/08/25 01:42:39;;;;;;;4.17;3.77;;;;;;;21.32;100.00;99751.50;4984164;28;20267;-77
2023/08/25 01:45:05;;;;;;;4.77;4.27;;;;;;;21.30;100.00;99751.59;4990997;28;20189;-77
2023/08/25 01:47:33;;;;;;;4.53;4.10;;;;;;;21.28;100.00;99758.72;4982912;28;20205;-76
2023/08/25 01:49:59;;;;;;;4.47;4.07;;;;;;;21.27;100.00;99761.47;4981738;28;20674;-77
2023/08/25 01:52:25;;;;;;;4.93;4.07;;;;;;;21.27;100.00;99761.47;4980707;28;20234;-77
2023/08/25 01:54:52;;;;;;;4.90;4.40;;;;;;;21.25;100.00;99764.19;4984100;28;20193;-77
2023/08/25 01:57:17;;;;;;;4.07;3.73;;;;;;;21.25;100.00;99763.34;4992194;28;20271;-78
2023/08/25 01:59:43;;;;;;;4.93;4.30;;;;;;;21.23;100.00;99754.69;4996743;28;20189;-77
2023/08/25 02:02:08;;;;;;;4.07;3.67;;;;;;;21.24;100.00;99754.63;4983522;28;20216;-78
2023/08/25 02:04:33;;;;;;;4.30;3.97;;;;;;;21.23;100.00;99744.16;4978352;28;20679;-78
2023/08/25 02:06:59;;;;;;;4.20;3.90;;;;;;;21.22;100.00;99745.13;4986369;28;20295;-78
2023/08/25 02:09:25;;;;;;;4.83;4.33;;;;;;;21.20;100.00;99739.97;4985600;28;20185;-77
2023/08/25 02:11:50;;;;;;;5.27;4.77;;;;;;;21.19;100.00;99745.28;4986821;28;20866;-77
2023/08/25 02:14:15;;;;;;;4.67;4.27;;;;;;;21.17;100.00;99738.38;4990546;28;20192;-78
2023/08/25 02:16:41;;;;;;;4.30;3.93;;;;;;;21.17;100.00;99740.13;4986423;28;20216;-77
2023/08/25 02:19:06;;;;;;;4.23;3.83;;;;;;;21.14;100.00;99735.94;4982958;28;20196;-78
2023/08/25 02:21:31;;;;;;;4.10;3.80;;;;;;;21.13;100.00;99734.22;4984151;28;20935;-77
2023/08/25 02:23:57;;;;;;;4.63;3.70;;;;;;;21.11;100.00;99736.09;4987500;28;20193;-77
2023/08/25 02:26:22;;;;;;;4.63;4.23;;;;;;;21.10;100.00;99731.78;4988664;28;20201;-78
2023/08/25 02:28:47;;;;;;;4.20;3.80;;;;;;;21.10;100.00;99733.59;4982996;28;20193;-77
2023/08/25 02:31:12;;;;;;;3.70;3.40;;;;;;;21.08;100.00;99731.03;4978949;28;20192;-78
2023/08/25 02:33:38;;;;;;;3.60;3.30;;;;;;;21.08;100.00;99727.56;4987698;28;21615;-78
2023/08/25 02:36:03;;;;;;;4.67;3.40;;;;;;;21.06;100.00;99727.66;4987151;28;20688;-77
2023/08/25 02:38:29;;;;;;;3.83;3.53;;;;;;;21.04;100.00;99724.25;4982192;28;20300;-77
2023/08/25 02:40:54;;;;;;;3.50;3.20;;;;;;;21.04;100.00;99721.63;4985972;28;20224;-77
2023/08/25 02:43:19;;;;;;;4.97;3.50;;;;;;;21.02;100.00;99719.09;4990138;28;20623;-77
2023/08/25 02:45:44;;;;;;;3.53;3.23;;;;;;;21.00;100.00;99709.63;4990684;28;20196;-78
2023/08/25 02:48:10;;;;;;;3.77;3.43;;;;;;;20.98;100.00;99707.06;5006690;28;20627;-77
2023/08/25 02:50:35;;;;;;;3.60;3.30;;;;;;;20.97;100.00;99709.81;4981655;28;21049;-76
2023/08/25 02:53:00;;;;;;;4.00;3.70;;;;;;;20.95;100.00;99704.63;5005586;28;20219;-78
2023/08/25 02:55:26;;;;;;;3.50;3.30;;;;;;;20.96;100.00;99700.22;4988352;28;20232;-77
2023/08/25 02:57:51;;;;;;;3.47;3.20;;;;;;;20.94;100.00;99695.06;4987942;28;20216;-77
2023/08/25 03:00:23;;;;;;;3.30;3.00;;;;;;;20.91;100.00;99697.88;4987306;28;20266;-77
2023/08/25 03:02:49;;;;;;;3.90;3.37;;;;;;;20.89;100.00;99694.50;4992290;28;20211;-77
2023/08/25 03:05:14;;;;;;;3.67;3.37;;;;;;;20.86;100.00;99684.16;4990143;28;20201;-77
2023/08/25 03:07:40;;;;;;;4.63;4.20;;;;;;;20.83;100.00;99681.72;4987623;28;20681;-77
2023/08/25 03:10:07;;;;;;;4.50;4.10;;;;;;;20.82;100.00;99678.25;4990589;28;20206;-76
2023/08/25 03:12:32;;;;;;;4.60;4.10;;;;;;;20.82;100.00;99670.38;4991338;28;20272;-76
2023/08/25 03:14:58;;;;;;;4.93;4.50;;;;;;;20.78;100.00;99668.88;4989759;28;20208;-74
2023/08/25 03:17:24;;;;;;;4.47;4.07;;;;;;;20.75;100.00;99670.81;4984395;28;20338;-77
2023/08/25 03:19:49;;;;;;;4.03;3.70;;;;;;;20.74;100.00;99669.94;4986637;28;20208;-78
2023/08/25 03:22:15;;;;;;;4.20;3.80;;;;;;;20.75;100.00;99665.56;4986188;28;20223;-77
2023/08/25 03:24:40;;;;;;;4.43;4.03;;;;;;;20.74;100.00;99666.50;4989029;28;20260;-78
2023/08/25 03:27:06;;;;;;;3.90;3.60;;;;;;;20.73;100.00;99665.63;4983072;28;20215;-77
2023/08/25 03:29:31;;;;;;;4.13;3.73;;;;;;;20.71;100.00;99657.84;4988774;28;20228;-77
2023/08/25 03:31:57;;;;;;;3.80;3.50;;;;;;;20.71;100.00;99660.47;4987869;28;20220;-77
2023/08/25 03:34:23;;;;;;;3.43;3.13;;;;;;;20.70;100.00;99658.78;4988424;28;20661;-77
2023/08/25 03:36:48;;;;;;;4.50;3.90;;;;;;;20.63;100.00;99654.84;4983792;28;20209;-77
2023/08/25 03:39:13;;;;;;;4.73;4.17;;;;;;;20.59;100.00;99660.38;4987307;28;20195;-76
2023/08/25 03:41:39;;;;;;;4.93;4.00;;;;;;;20.50;100.00;99660.00;4996237;28;20291;-77
2023/08/25 03:44:04;;;;;;;5.00;4.03;;;;;;;20.41;100.00;99652.69;4986764;28;20660;-77
2023/08/25 03:46:31;;;;;;;6.67;4.40;;;;;;;20.33;100.00;99655.78;4973761;28;20209;-76
2023/08/25 03:48:57;;;;;;;8.00;5.00;;;;;;;20.20;100.00;99657.41;4991516;28;20193;-76
2023/08/25 03:51:22;;;;;;;5.00;4.47;;;;;;;20.16;100.00;99658.56;4986807;28;20189;-77
2023/08/25 03:53:48;;;;;;;4.97;4.57;;;;;;;20.12;100.00;99663.13;4987021;28;20181;-77
2023/08/25 03:56:13;;;;;;;4.87;4.47;;;;;;;20.04;100.00;99655.69;4987620;28;20193;-77
2023/08/25 03:58:38;;;;;;;5.10;4.60;;;;;;;20.08;100.00;99651.97;4993851;28;20189;-77
2023/08/25 04:01:04;;;;;;;9.53;5.47;;;;;;;20.12;100.00;99644.72;4988263;28;20723;-77
2023/08/25 04:03:29;;;;;;;5.07;4.57;;;;;;;20.11;100.00;99653.56;4988594;28;20275;-77
2023/08/25 04:05:54;;;;;;;6.53;4.57;;;;;;;20.12;100.00;99649.16;4985583;28;20196;-77
2023/08/25 04:08:20;;;;;;;4.67;4.37;;;;;;;20.13;100.00;99645.59;4988946;28;21126;-77
2023/08/25 04:10:45;;;;;;;6.33;5.10;;;;;;;20.16;100.00;99651.50;4988344;28;20185;-77
2023/08/25 04:13:10;;;;;;;5.00;4.50;;;;;;;20.17;100.00;99649.75;4987889;28;20189;-77
2023/08/25 04:15:36;;;;;;;5.10;4.60;;;;;;;20.22;100.00;99651.16;4990975;28;20200;-77
2023/08/25 04:18:02;;;;;;;7.10;5.07;;;;;;;20.23;100.00;99644.09;4983786;28;20220;-77
2023/08/25 04:20:27;;;;;;;4.97;4.57;;;;;;;20.21;100.00;99643.34;4982572;28;20716;-77
2023/08/25 04:22:53;;;;;;;4.40;4.00;;;;;;;20.20;100.00;99642.50;4987694;28;20195;-78
2023/08/25 04:25:18;;;;;;;4.53;4.23;;;;;;;20.22;100.00;99650.28;4982326;28;20185;-78
2023/08/25 04:27:43;;;;;;;4.40;4.00;;;;;;;20.23;100.00;99655.47;4987550;28;20256;-78
2023/08/25 04:30:09;;;;;;;4.20;3.80;;;;;;;20.25;100.00;99642.22;4980895;28;20214;-78
2023/08/25 04:32:34;;;;;;;4.40;4.10;;;;;;;20.25;100.00;99652.75;4983766;28;20696;-78
2023/08/25 04:35:00;;;;;;;4.30;3.93;;;;;;;20.25;100.00;99650.97;5001167;28;20568;-78
2023/08/25 04:37:25;;;;;;;4.60;4.20;;;;;;;20.25;100.00;99644.88;4989407;28;20208;-78
2023/08/25 04:39:52;;;;;;;4.40;4.00;;;;;;;20.25;100.00;99635.22;4978456;28;20189;-77
2023/08/25 04:42:17;;;;;;;4.30;4.00;;;;;;;20.27;100.00;99621.97;4978202;28;20213;-77
2023/08/25 04:44:43;;;;;;;4.10;3.80;;;;;;;20.29;100.00;99624.50;4977463;28;20192;-77
2023/08/25 04:47:08;;;;;;;4.67;4.27;;;;;;;20.31;100.00;99626.13;4982797;28;20345;-78
2023/08/25 04:49:33;;;;;;;6.13;4.30;;;;;;;20.34;100.00;99654.84;4991196;28;20196;-78
2023/08/25 04:51:59;;;;;;;4.90;4.50;;;;;;;20.38;100.00;99661.56;4995985;28;20189;-78
2023/08/25 04:54:24;;;;;;;4.30;4.00;;;;;;;20.43;100.00;99658.66;5000558;28;20203;-77
2023/08/25 04:56:49;;;;;;;4.37;3.90;;;;;;;20.49;100.00;99662.75;4982227;28;20201;-79
2023/08/25 04:59:15;;;;;;;4.20;3.80;;;;;;;20.57;100.00;99663.09;4986672;28;20647;-77
2023/08/25 05:01:40;;;;;;;4.10;3.80;;;;;;;20.66;100.00;99673.03;4984598;28;21022;-78
2023/08/25 05:04:05;;;;;;;3.97;3.67;;;;;;;20.78;100.00;99679.38;4985850;28;20200;-78
2023/08/25 05:06:31;;;;;;;4.47;3.93;;;;;;;20.93;100.00;99689.88;4984968;28;20264;-77
2023/08/25 05:08:56;;;;;;;3.87;3.57;;;;;;;21.10;100.00;99705.47;4987322;28;20753;-78
2023/08/25 05:11:22;;;;;;;3.87;3.43;;;;;;;21.27;100.00;99720.19;4984723;28;20185;-77
2023/08/25 05:13:47;;;;;;;3.70;3.40;;;;;;;21.44;100.00;99731.44;4984436;28;20181;-77
2023/08/25 05:16:15;;;;;;;4.43;4.00;;;;;;;21.62;100.00;99761.91;4987013;28;20241;-77
2023/08/25 05:18:40;;;;;;;4.23;3.83;;;;;;;21.73;100.00;99794.59;4983088;28;20197;-78
2023/08/25 05:21:06;;;;;;;4.03;3.73;;;;;;;21.71;100.00;99831.59;4982175;28;20212;-77
2023/08/25 05:23:31;;;;;;;4.53;4.13;;;;;;;21.64;100.00;99855.75;4981620;28;20191;-78
2023/08/25 05:25:56;;;;;;;4.40;4.00;;;;;;;21.56;100.00;99870.19;4986849;28;20197;-76
2023/08/25 05:28:22;;;;;;;4.90;3.80;;;;;;;21.50;100.00;99862.69;4986208;28;20212;-77
2023/08/25 05:30:51;;;;;;;4.77;4.27;;;;;;;21.30;100.00;99845.50;4985905;28;20189;-77
2023/08/25 05:33:16;;;;;;;4.30;4.00;;;;;;;21.26;100.00;99839.56;4983417;28;20201;-77
2023/08/25 05:35:42;;;;;;;4.03;3.70;;;;;;;21.25;100.00;99845.75;4986387;28;20192;-79
2023/08/25 05:38:07;;;;;;;3.93;3.57;;;;;;;21.26;100.00;99870.31;4992012;28;20232;-77
2023/08/25 05:40:32;;;;;;;4.07;3.63;;;;;;;21.27;100.00;99912.31;4988354;28;20196;-78
2023/08/25 05:42:58;;;;;;;3.87;3.57;;;;;;;21.30;100.00;99993.72;4983259;28;21073;-78
2023/08/25 05:45:23;;;;;;;4.67;4.27;;;;;;;21.33;100.00;100047.94;4987814;28;20736;-79
2023/08/25 05:47:49;;;;;;;8.07;4.50;;;;;;;21.35;100.00;100076.84;4985064;28;20263;-78
2023/08/25 05:50:15;;;;;;;5.17;4.67;;;;;;;21.31;100.00;100139.34;4989869;28;20199;-78
2023/08/25 05:52:41;;;;;;;12.13;6.40;;;;;;;21.31;100.00;100121.75;4990770;28;20721;-77
2023/08/25 05:55:08;;;;;;;9.13;5.60;;;;;;;21.22;100.00;100111.75;4988022;28;20189;-77
2023/08/25 05:57:33;;;;;;;11.87;5.67;;;;;;;21.16;100.00;100070.84;4986028;28;20208;-78
2023/08/25 05:59:58;;;;;;;6.77;4.90;;;;;;;21.08;100.00;100066.94;5004999;28;20374;-77
2023/08/25 06:02:24;;;;;;;7.90;5.50;;;;;;;21.03;100.00;100051.41;4987009;28;20205;-77
2023/08/25 06:04:49;;;;;;;6.77;5.40;;;;;;;21.00;100.00;100043.72;4984927;28;20180;-77
2023/08/25 06:07:14;;;;;;;6.43;5.20;;;;;;;20.97;100.00;100010.50;4987590;28;20632;-78
2023/08/25 06:09:40;;;;;;;5.73;4.50;;;;;;;20.95;100.00;99982.63;4987337;28;20192;-77
2023/08/25 06:12:06;;;;;;;5.67;4.90;;;;;;;20.93;100.00;99972.19;4986270;28;20208;-77
2023/08/25 06:14:31;;;;;;;6.27;5.10;;;;;;;20.92;100.00;99949.44;4989339;28;20189;-78
2023/08/25 06:17:00;;;;;;;5.83;5.23;;;;;;;20.90;100.00;99932.91;4990672;28;20200;-78
2023/08/25 06:19:26;;;;;;;6.00;5.37;;;;;;;20.90;100.00;99935.53;4984758;28;20180;-77
2023/08/25 06:21:51;;;;;;;8.90;5.17;;;;;;;20.91;100.00;99918.81;4989493;28;20201;-76
2023/08/25 06:24:16;;;;;;;5.53;5.00;;;;;;;20.90;100.00;99898.72;5005380;28;20185;-77
2023/08/25 06:26:42;;;;;;;5.60;5.07;;;;;;;20.92;100.00;99867.06;4993111;28;20212;-79
2023/08/25 06:29:07;;;;;;;5.57;5.13;;;;;;;20.94;100.00;99845.00;4991064;28;20215;-77
2023/08/25 06:31:33;;;;;;;3.93;3.63;;;;;;;20.94;100.00;99836.25;4981738;28;20463;-77
2023/08/25 06:34:02;;;;;;;4.87;4.37;;;;;;;20.95;100.00;99820.38;4986121;28;20184;-78
2023/08/25 06:36:27;;;;;;;5.03;4.53;;;;;;;20.95;100.00;99809.00;4985459;28;20577;-76
2023/08/25 06:38:53;;;;;;;6.13;4.13;;;;;;;20.98;100.00;99803.56;4982257;28;20181;-77
2023/08/25 06:41:18;;;;;;;5.70;4.87;;;;;;;21.00;100.00;99788.53;4982302;28;20913;-77
2023/08/25 06:43:43;;;;;;;4.40;4.00;;;;;;;21.04;100.00;99804.97;4983358;28;20865;-77
2023/08/25 06:46:09;;;;;;;5.63;4.17;;;;;;;21.05;100.00;99815.41;4992686;28;20262;-77
2023/08/25 06:48:34;;;;;;;5.07;4.53;;;;;;;21.07;100.00;99818.78;5002138;28;20184;-78
2023/08/25 06:50:59;;;;;;;4.60;4.10;;;;;;;21.08;100.00;99812.59;5003789;28;20183;-79
2023/08/25 06:53:25;;;;;;;4.90;4.50;;;;;;;21.08;100.00;99836.25;4993530;28;20681;-78
2023/08/25 06:55:50;;;;;;;3.83;3.50;;;;;;;21.08;100.00;99857.31;4985369;28;20744;-76
2023/08/25 06:58:16;;;;;;;4.70;3.47;;;;;;;21.05;100.00;99860.13;4987976;28;20208;-76
2023/08/25 07:00:41;;;;;;;3.70;3.40;;;;;;;21.00;100.00;99844.63;4991582;28;20184;-79
2023/08/25 07:03:07;;;;;;;4.50;3.43;;;;;;;20.95;100.00;99837.94;4991474;28;20197;-79
2023/08/25 07:05:37;;;;;;;3.83;3.43;;;;;;;20.93;100.00;99845.94;4991347;28;20186;-77
2023/08/25 07:08:04;;;;;;;3.73;3.10;;;;;;;20.94;100.00;99862.53;4991295;28;20237;-78
2023/08/25 07:10:30;;;;;;;3.47;3.17;;;;;;;20.94;100.00;99859.91;4991636;28;20256;-77
2023/08/25 07:12:55;;;;;;;4.37;3.13;;;;;;;20.91;100.00;99863.59;4987363;28;20189;-77
2023/08/25 07:15:21;;;;;;;3.57;2.83;;;;;;;20.91;100.00;99870.63;4991054;28;20327;-76
2023/08/25 07:17:47;;;;;;;4.77;3.13;;;;;;;20.90;100.00;99871.56;4987622;28;20277;-77
2023/08/25 07:20:13;;;;;;;3.00;2.23;;;;;;;20.88;100.00;99869.03;4990566;28;20196;-76
2023/08/25 07:22:39;;;;;;;3.43;2.40;;;;;;;20.91;100.00;99886.41;4978013;28;20221;-79
2023/08/25 07:25:05;;;;;;;2.63;2.43;;;;;;;20.89;100.00;99881.25;4987181;28;20194;-77
2023/08/25 07:27:30;;;;;;;3.63;2.10;;;;;;;20.88;100.00;99894.47;5004208;28;20300;-78
2023/08/25 07:29:55;;;;;;;2.93;2.00;;;;;;;20.84;100.00;99899.91;4993038;28;20201;-78
2023/08/25 07:32:21;;;;;;;3.37;2.10;;;;;;;20.80;100.00;99861.59;4990503;28;20189;-79
2023/08/25 07:34:46;;;;;;;3.23;2.10;;;;;;;20.78;100.00;99842.41;4985382;28;20220;-78
2023/08/25 07:37:12;;;;;;;2.17;1.93;;;;;;;20.80;100.00;99848.44;4988537;28;20270;-79
2023/08/25 07:39:41;;;;;;;2.23;1.87;;;;;;;20.83;100.00;99842.13;4991751;28;20300;-77
2023/08/25 07:42:07;;;;;;;3.17;2.20;;;;;;;20.85;100.00;99829.75;4998526;28;20802;-78
2023/08/25 07:44:32;;;;;;;2.07;1.87;;;;;;;20.85;100.00;99812.19;4991230;28;20226;-78
2023/08/25 07:46:58;;;;;;;3.27;2.10;;;;;;;20.86;100.00;99806.00;4989878;28;20237;-78
2023/08/25 07:49:23;;;;;;;4.20;2.60;;;;;;;20.88;100.00;99815.56;4987565;28;20197;-78
2023/08/25 07:51:49;;;;;;;4.00;2.60;;;;;;;20.90;100.00;99818.94;4980805;28;20196;-79
2023/08/25 07:54:14;;;;;;;3.10;2.80;;;;;;;20.90;100.00;99798.78;5006917;28;20220;-78
2023/08/25 07:56:39;;;;;;;3.37;2.50;;;;;;;20.91;100.00;99803.09;4984410;28;20785;-78
2023/08/25 07:59:05;;;;;;;3.07;2.77;;;;;;;20.92;100.00;99804.78;4983413;28;20308;-77
2023/08/25 08:01:31;;;;;;;3.53;2.67;;;;;;;20.91;100.00;99789.09;4991599;28;20216;-78
2023/08/25 08:03:56;;;;;;;3.77;2.97;;;;;;;20.88;100.00;99790.13;4989322;28;20215;-78
2023/08/25 08:06:21;;;;;;;3.20;2.90;;;;;;;20.90;100.00;99775.09;4994389;28;20646;-79
2023/08/25 08:08:48;;;;;;;6.97;3.10;;;;;;;20.90;100.00;99754.06;4980765;28;20862;-78
2023/08/25 08:11:13;;;;;;;3.50;2.90;;;;;;;20.91;100.00;99749.63;5001188;28;20189;-77
2023/08/25 08:13:39;;;;;;;3.50;3.20;;;;;;;20.92;100.00;99732.91;4983652;28;20189;-78
2023/08/25 08:16:05;;;;;;;4.30;2.90;;;;;;;20.91;100.00;99726.81;5012463;28;20188;-78
2023/08/25 08:18:30;;;;;;;4.67;2.80;;;;;;;20.93;100.00;99732.84;4993550;28;20189;-77
2023/08/25 08:20:56;;;;;;;3.07;2.70;;;;;;;20.96;100.00;99735.25;4992131;28;20655;-77
2023/08/25 08:23:21;;;;;;;6.83;3.00;;;;;;;20.99;100.00;99736.88;4989324;28;20727;-76
2023/08/25 08:25:46;;;;;;;3.17;2.60;;;;;;;21.04;100.00;99733.94;4989167;28;20586;-76
2023/08/25 08:28:12;;;;;;;2.80;2.50;;;;;;;21.09;100.00;99724.84;4985028;28;20205;-77
2023/08/25 08:30:37;;;;;;;3.90;2.30;;;;;;;21.16;100.00;99710.38;4983893;28;20712;-75
2023/08/25 08:33:04;;;;;;;3.43;2.90;;;;;;;21.24;100.00;99702.00;4987609;28;20225;-78
2023/08/25 08:35:29;;;;;;;2.83;2.63;;;;;;;21.34;100.00;99685.59;4990640;28;20653;-77
2023/08/25 08:37:54;;;;;;;4.07;2.43;;;;;;;21.42;100.00;99673.66;4991717;28;20209;-78
2023/08/25 08:40:20;;;;;;;2.60;2.40;;;;;;;21.47;100.00;99662.81;4992162;28;20204;-78
2023/08/25 08:42:47;;;;;;;3.83;2.53;;;;;;;21.53;100.00;99636.09;4983693;28;20210;-77
2023/08/25 08:45:15;;;;;;;3.53;2.60;;;;;;;21.60;100.00;99641.84;4989443;28;20189;-77
2023/08/25 08:47:41;;;;;;;2.73;2.53;;;;;;;21.65;100.00;99628.38;5005385;28;20213;-78
2023/08/25 08:50:07;;;;;;;2.80;2.60;;;;;;;21.70;100.00;99629.75;5002570;28;20184;-75
2023/08/25 08:52:33;;;;;;;2.87;2.67;;;;;;;21.81;100.00;99631.69;4986343;28;20178;-77
2023/08/25 08:54:59;;;;;;;2.53;2.33;;;;;;;21.90;100.00;99654.75;4988916;28;20553;-78
2023/08/25 08:57:28;;;;;;;3.03;2.73;;;;;;;21.99;100.00;99640.13;4992871;28;20268;-78
2023/08/25 08:59:58;;;;;;;2.83;2.53;;;;;;;22.12;100.00;99648.06;4985795;28;20189;-78
2023/08/25 09:02:28;;;;;;;4.17;3.00;;;;;;;22.25;100.00;99619.06;5004737;28;20443;-77
2023/08/25 09:04:57;;;;;;;4.37;2.80;;;;;;;22.35;100.00;99627.19;4989474;28;20185;-77
2023/08/25 09:07:27;;;;;;;3.40;3.03;;;;;;;22.44;100.00;99615.19;4991071;28;20196;-77
2023/08/25 09:09:53;;;;;;;3.20;2.90;;;;;;;22.57;100.00;99604.66;4988903;28;20721;-76
2023/08/25 09:12:20;;;;;;;4.00;3.00;;;;;;;22.72;100.00;99623.81;4985270;28;20177;-77
2023/08/25 09:14:45;;;;;;;2.70;2.50;;;;;;;22.87;100.00;99630.63;4990268;28;21029;-78
2023/08/25 09:17:14;;;;;;;3.70;2.87;;;;;;;22.97;100.00;99628.19;4991086;28;20231;-79
2023/08/25 09:19:40;;;;;;;2.80;2.60;;;;;;;23.06;100.00;99624.06;4988147;28;20177;-80
2023/08/25 09:22:09;;;;;;;2.97;2.70;;;;;;;23.16;100.00;99626.88;4990619;28;20264;-79
2023/08/25 09:24:36;;;;;;;3.07;2.63;;;;;;;23.24;100.00;99640.38;4989503;28;20243;-79
2023/08/25 09:27:02;;;;;;;2.73;2.53;;;;;;;23.27;100.00;99717.56;4990110;28;20228;-77
2023/08/25 09:29:39;;;;;;;3.10;2.80;;;;;;;23.29;100.00;99739.41;4989725;28;20185;-78
2023/08/25 09:32:05;;;;;;;3.17;2.70;;;;;;;23.22;100.00;99758.44;4988046;28;20634;-80
2023/08/25 09:34:31;;;;;;;5.20;2.50;;;;;;;23.16;100.00;99778.16;4993412;28;20207;-80
2023/08/25 09:36:56;;;;;;;3.07;2.60;;;;;;;23.09;100.00;99790.94;5009755;28;20233;-79
2023/08/25 09:39:23;;;;;;;2.50;2.30;;;;;;;23.09;100.00;99785.66;5008484;28;20201;-80
2023/08/25 09:41:49;;;;;;;2.80;2.60;;;;;;;23.11;100.00;99777.66;4987702;28;20204;-78
2023/08/25 09:44:16;;;;;;;3.43;2.40;;;;;;;23.10;100.00;99779.44;4985502;28;20296;-76
2023/08/25 09:46:42;;;;;;;2.60;2.40;;;;;;;23.16;100.00;99757.03;5003279;28;20209;-77
2023/08/25 09:49:13;;;;;;;3.90;2.47;;;;;;;23.28;100.00;99756.22;4985525;28;20211;-76
2023/08/25 09:51:50;;;;;;;2.70;2.50;;;;;;;23.34;100.00;99748.81;4986073;28;20191;-77
2023/08/25 09:54:18;;;;;;;2.77;2.57;;;;;;;23.32;100.00;99745.41;4992374;28;20267;-78
2023/08/25 09:56:47;;;;;;;2.90;2.60;;;;;;;23.37;100.00;99765.25;4986951;28;20207;-77
2023/08/25 09:59:14;;;;;;;3.53;2.53;;;;;;;23.32;100.00;99751.56;4987945;28;20189;-77
2023/08/25 10:01:42;;;;;;;2.83;2.63;;;;;;;23.39;100.00;99752.78;4983731;28;20208;-78
2023/08/25 10:04:08;;;;;;;2.80;2.60;;;;;;;23.51;100.00;99787.22;4985787;28;20505;-77
2023/08/25 10:06:36;;;;;;;2.73;2.53;;;;;;;23.63;100.00;99783.69;4988077;28;20483;-78
2023/08/25 10:09:02;;;;;;;3.23;2.67;;;;;;;23.76;100.00;99781.00;4985155;28;20217;-77
2023/08/25 10:11:33;;;;;;;3.10;2.90;;;;;;;23.88;100.00;99766.91;4982147;28;20268;-77
2023/08/25 10:14:03;;;;;;;2.90;2.60;;;;;;;24.04;100.00;99739.38;4984084;28;20193;-77
2023/08/25 10:16:31;;;;;;;2.80;2.60;;;;;;;24.28;100.00;99752.53;4982059;28;20338;-78
2023/08/25 10:19:01;;;;;;;2.93;2.73;;;;;;;24.45;100.00;99761.88;4996829;28;20260;-78
2023/08/25 10:21:28;;;;;;;3.23;2.77;;;;;;;24.68;100.00;99776.94;4982550;28;20206;-77
2023/08/25 10:23:54;;;;;;;2.97;2.50;;;;;;;24.90;100.00;99792.88;4985345;28;20188;-78
2023/08/25 10:26:22;;;;;;;2.90;2.70;;;;;;;25.08;100.00;99793.28;4986576;28;20181;-78
2023/08/25 10:28:47;;;;;;;4.33;2.77;;;;;;;25.35;100.00;99794.72;4989913;28;20644;-77
2023/08/25 10:31:13;;;;;;;2.70;2.50;;;;;;;25.64;100.00;99793.38;4987743;28;20192;-79
2023/08/25 10:34:05;;;;;;;2.80;2.60;;;;;;;25.94;100.00;99800.66;4980272;28;20196;-77
2023/08/25 10:36:41;;;;;;;2.87;2.67;;;;;;;26.27;100.00;99787.41;4984367;28;20252;-78
2023/08/25 10:39:08;;;;;;;3.27;2.97;;;;;;;26.47;100.00;99785.78;4986371;28;20279;-77
2023/08/25 10:41:42;;;;;;;3.13;2.90;;;;;;;26.62;100.00;99776.47;4990215;28;20208;-79
2023/08/25 10:44:27;;;;;;;3.87;2.70;;;;;;;26.95;100.00;99778.22;4991446;28;20184;-80
2023/08/25 10:47:00;;;;;;;2.70;2.47;;;;;;;26.99;100.00;99787.63;5000658;28;20288;-79
2023/08/25 10:49:26;;;;;;;4.07;2.50;;;;;;;26.95;100.00;99776.44;4993322;28;20239;-77
2023/08/25 10:52:11;;;;;;;2.90;2.70;;;;;;;26.72;100.00;99765.09;4999247;28;20656;-78
2023/08/25 10:54:40;;;;;;;2.50;2.30;;;;;;;26.87;100.00;99768.28;4983972;28;20209;-77
2023/08/25 10:57:27;;;;;;;3.70;2.80;;;;;;;27.06;100.00;99760.41;4992601;28;20304;-76
2023/08/25 10:59:57;;;;;;;3.77;2.77;;;;;;;26.85;100.00;99754.31;4987540;28;20217;-76
2023/08/25 11:02:35;;;;;;;3.60;2.40;;;;;;;26.40;100.00;99758.88;4987865;28;20304;-77
2023/08/25 11:05:41;;;;;;;2.90;2.37;;;;;;;26.57;100.00;99746.00;4982157;28;20236;-77
2023/08/25 11:08:26;;;;;;;3.40;3.07;;;;;;;26.38;100.00;99765.31;4954333;28;20210;-79
2023/08/25 11:11:13;;;;;;;3.27;2.70;;;;;;;26.36;100.00;99773.41;4992823;28;20209;-77
2023/08/25 11:13:40;;;;;;;3.23;2.93;;;;;;;26.39;100.00;99777.59;4991829;28;20180;-77
2023/08/25 11:16:08;;;;;;;3.87;2.83;;;;;;;26.38;100.00;99771.47;4990830;28;20181;-77
2023/08/25 11:18:33;;;;;;;3.03;2.70;;;;;;;26.49;100.00;99789.09;4990572;28;20185;-76
2023/08/25 11:21:01;;;;;;;3.63;2.80;;;;;;;25.93;98.74;99759.19;4993364;28;20196;-77
2023/08/25 11:23:55;;;;;;;3.83;2.67;;;;;;;25.99;100.00;99773.75;4985698;28;20198;-78